Time;durP1;ratioP1;P1;durP2;ratioP2;P2;SDS_P1;SDS_P2;PMS_P1;PMS_P2;Temp;Humidity;BMP_temperature;BMP_pressure;BME280_temperature;BME280_humidity;BME280_pressure;Samples;Min_cycle;Max_cycle;Signal;HPM_P1;HPM_P2
2021/04/26 00:00:43;;;;;;;5.60;1.70;;;7.00;84.30;;;;;;6097052;23;20022;-83
2021/04/26 00:03:09;;;;;;;5.05;1.63;;;6.90;84.30;;;;;;6096573;23;20029;-84
2021/04/26 00:05:35;;;;;;;5.40;1.80;;;6.90;84.30;;;;;;6097284;23;20343;-83
2021/04/26 00:08:01;;;;;;;5.35;1.73;;;6.80;84.50;;;;;;6097363;23;20448;-83
2021/04/26 00:10:29;;;;;;;7.47;1.60;;;6.80;84.70;;;;;;6096949;23;20022;-82
2021/04/26 00:12:55;;;;;;;6.78;2.00;;;6.80;84.50;;;;;;6097832;23;20018;-83
2021/04/26 00:15:27;;;;;;;5.07;1.70;;;6.70;84.50;;;;;;6097439;23;20032;-83
2021/04/26 00:17:53;;;;;;;7.03;1.92;;;6.70;84.60;;;;;;6096007;23;20069;-81
2021/04/26 00:20:21;;;;;;;6.63;1.80;;;6.60;84.50;;;;;;6097622;23;20123;-82
2021/04/26 00:22:50;;;;;;;7.85;1.90;;;6.60;84.60;;;;;;6096120;23;20298;-82
2021/04/26 00:25:16;;;;;;;7.78;1.88;;;6.50;85.20;;;;;;6096537;23;20015;-83
2021/04/26 00:27:42;;;;;;;6.03;1.60;;;6.50;84.00;;;;;;6097291;23;20102;-82
2021/04/26 00:30:14;;;;;;;7.22;1.88;;;6.50;84.20;;;;;;6097430;23;20327;-82
2021/04/26 00:32:40;;;;;;;5.20;1.67;;;6.40;84.50;;;;;;6096018;23;20022;-81
2021/04/26 00:35:07;;;;;;;7.38;1.73;;;6.40;84.30;;;;;;6097183;23;20019;-82
2021/04/26 00:37:33;;;;;;;8.82;1.60;;;6.30;84.70;;;;;;6096671;23;20030;-83
2021/04/26 00:39:59;;;;;;;6.18;1.83;;;6.30;84.70;;;;;;6096335;23;20037;-82
2021/04/26 00:42:28;;;;;;;5.60;1.92;;;6.20;84.70;;;;;;6097542;23;20042;-82
2021/04/26 00:44:54;;;;;;;6.60;1.67;;;6.20;84.90;;;;;;6096498;23;20046;-82
2021/04/26 00:47:20;;;;;;;8.98;2.33;;;6.20;84.70;;;;;;6097223;23;20030;-82
2021/04/26 00:49:45;;;;;;;8.60;1.80;;;6.10;85.40;;;;;;6097233;23;20504;-82
2021/04/26 00:52:11;;;;;;;5.90;1.70;;;6.10;84.90;;;;;;6096331;23;20042;-82
2021/04/26 00:54:37;;;;;;;5.95;2.08;;;6.00;85.20;;;;;;6097006;23;20025;-82
2021/04/26 00:57:03;;;;;;;6.82;1.95;;;6.00;85.40;;;;;;6097201;23;20022;-82
2021/04/26 00:59:30;;;;;;;7.07;1.90;;;6.00;85.50;;;;;;6096470;23;20094;-82
2021/04/26 01:01:55;;;;;;;6.85;2.00;;;6.00;85.40;;;;;;6096993;23;20022;-82
2021/04/26 01:04:21;;;;;;;5.25;1.80;;;6.00;85.40;;;;;;6097199;23;20015;-82
2021/04/26 01:06:47;;;;;;;5.18;1.75;;;5.90;85.50;;;;;;6095939;23;20025;-82
2021/04/26 01:09:13;;;;;;;6.13;1.60;;;5.80;85.30;;;;;;6096997;23;20022;-82
2021/04/26 01:11:50;;;;;;;7.28;1.77;;;5.80;85.20;;;;;;6096656;23;20022;-82
2021/04/26 01:14:24;;;;;;;6.85;2.03;;;5.80;85.60;;;;;;6096339;23;20025;-82
2021/04/26 01:16:58;;;;;;;6.65;1.90;;;5.70;85.80;;;;;;6096152;23;20089;-82
2021/04/26 01:19:48;;;;;;;5.07;1.70;;;5.70;85.90;;;;;;6096461;23;20474;-82
2021/04/26 01:22:39;;;;;;;5.43;1.90;;;5.70;85.50;;;;;;6095982;23;20069;-82
2021/04/26 01:25:09;;;;;;;6.53;2.05;;;5.60;85.40;;;;;;6097175;23;20019;-82
2021/04/26 01:28:01;;;;;;;6.05;1.80;;;5.60;85.80;;;;;;6095745;23;20015;-82
2021/04/26 01:31:11;;;;;;;7.13;2.08;;;5.60;85.80;;;;;;6096532;23;20443;-82
2021/04/26 01:33:42;;;;;;;6.90;1.92;;;5.50;85.80;;;;;;6074149;23;20463;-82
2021/04/26 01:36:16;;;;;;;4.85;1.77;;;5.50;86.20;;;;;;6095506;23;20376;-82
2021/04/26 01:38:44;;;;;;;5.65;1.45;;;5.50;86.10;;;;;;6095771;23;20026;-82
2021/04/26 01:41:11;;;;;;;5.55;1.70;;;5.40;85.50;;;;;;6096115;23;20021;-82
2021/04/26 01:43:38;;;;;;;4.60;1.95;;;5.40;85.50;;;;;;6096377;23;20038;-82
2021/04/26 01:46:06;;;;;;;6.28;1.95;;;5.30;84.90;;;;;;6096708;23;20070;-82
2021/04/26 01:48:35;;;;;;;5.28;1.60;;;5.30;84.70;;;;;;6095382;23;20346;-82
2021/04/26 01:51:02;;;;;;;7.32;1.92;;;5.20;84.60;;;;;;6096775;23;20019;-82
2021/04/26 01:53:28;;;;;;;5.75;1.85;;;5.20;85.20;;;;;;6095890;23;20074;-82
2021/04/26 01:55:59;;;;;;;6.85;2.17;;;5.20;85.30;;;;;;6094897;23;20364;-82
2021/04/26 01:58:26;;;;;;;7.53;1.92;;;5.10;85.40;;;;;;6096404;23;20022;-82
2021/04/26 02:00:52;;;;;;;5.20;2.05;;;5.10;85.30;;;;;;6096202;23;20018;-83
2021/04/26 02:03:22;;;;;;;7.15;1.70;;;5.00;84.90;;;;;;6096003;23;20022;-82
2021/04/26 02:05:53;;;;;;;6.57;2.05;;;5.00;84.90;;;;;;6096328;23;20019;-82
2021/04/26 02:08:20;;;;;;;6.03;1.80;;;5.00;85.30;;;;;;6096800;23;20018;-82
2021/04/26 02:10:46;;;;;;;5.75;1.98;;;4.90;85.00;;;;;;6094903;23;20513;-82
2021/04/26 02:13:18;;;;;;;5.45;1.70;;;4.90;85.10;;;;;;6096284;23;20042;-82
2021/04/26 02:15:44;;;;;;;5.68;1.95;;;4.90;85.20;;;;;;6095955;23;20501;-82
2021/04/26 02:18:11;;;;;;;5.45;2.00;;;4.80;85.50;;;;;;6095514;23;20018;-82
2021/04/26 02:20:36;;;;;;;5.28;1.80;;;4.80;86.10;;;;;;6096216;23;20019;-82
2021/04/26 02:23:04;;;;;;;6.53;1.80;;;4.80;86.00;;;;;;6095991;23;20037;-82
2021/04/26 02:25:30;;;;;;;5.13;1.90;;;4.80;86.10;;;;;;6096003;23;20050;-82
2021/04/26 02:27:55;;;;;;;8.25;1.85;;;4.80;86.20;;;;;;6096441;23;20065;-83
2021/04/26 02:30:22;;;;;;;6.03;1.90;;;4.70;86.40;;;;;;6096112;23;20447;-82
2021/04/26 02:32:50;;;;;;;6.80;1.98;;;4.70;86.50;;;;;;6095833;23;20074;-82
2021/04/26 02:35:25;;;;;;;7.40;1.90;;;4.70;86.50;;;;;;6096103;23;20427;-82
2021/04/26 02:37:56;;;;;;;6.00;1.80;;;4.70;86.70;;;;;;6094432;23;20089;-82
2021/04/26 02:40:24;;;;;;;8.00;1.83;;;4.60;86.50;;;;;;6096035;23;20074;-82
2021/04/26 02:42:52;;;;;;;4.38;1.80;;;4.60;86.70;;;;;;6095464;23;20019;-82
2021/04/26 02:45:24;;;;;;;5.53;1.98;;;4.60;86.60;;;;;;6095494;23;20408;-82
2021/04/26 02:47:51;;;;;;;4.47;1.55;;;4.60;86.90;;;;;;6095927;23;20411;-82
2021/04/26 02:50:27;;;;;;;6.00;1.60;;;4.60;86.40;;;;;;6096802;23;20011;-82
2021/04/26 02:52:53;;;;;;;4.70;1.90;;;4.50;86.30;;;;;;6096889;23;20026;-82
2021/04/26 02:55:20;;;;;;;6.05;1.70;;;4.50;85.70;;;;;;6098350;23;20097;-82
2021/04/26 02:57:48;;;;;;;4.13;1.40;;;4.50;85.60;;;;;;6097589;23;20026;-82
2021/04/26 03:00:18;;;;;;;4.63;1.60;;;4.40;85.70;;;;;;6096650;23;20451;-82
2021/04/26 03:02:44;;;;;;;4.68;1.70;;;4.40;85.90;;;;;;6097873;23;20045;-82
2021/04/26 03:05:11;;;;;;;5.10;1.70;;;4.30;86.00;;;;;;6098301;23;20022;-82
2021/04/26 03:07:38;;;;;;;5.35;1.60;;;4.30;86.00;;;;;;6096635;23;20015;-82
2021/04/26 03:10:05;;;;;;;6.07;1.77;;;4.30;86.10;;;;;;6097665;23;20097;-82
2021/04/26 03:12:35;;;;;;;3.97;1.73;;;4.30;85.90;;;;;;6097969;23;20014;-82
2021/04/26 03:15:03;;;;;;;4.78;1.58;;;4.20;85.70;;;;;;6097557;23;20077;-81
2021/04/26 03:17:29;;;;;;;6.10;1.52;;;4.20;85.50;;;;;;6097261;23;20081;-81
2021/04/26 03:19:56;;;;;;;4.70;1.52;;;4.10;85.60;;;;;;6095982;23;20351;-82
2021/04/26 03:22:23;;;;;;;4.80;1.60;;;4.10;85.60;;;;;;6098161;23;20081;-82
2021/04/26 03:24:49;;;;;;;4.53;1.65;;;4.10;85.60;;;;;;6097603;23;20018;-82
2021/04/26 03:27:17;;;;;;;4.00;1.60;;;4.10;85.40;;;;;;6096803;23;20026;-82
2021/04/26 03:29:46;;;;;;;5.30;1.50;;;4.00;85.80;;;;;;6097524;23;20182;-82
2021/04/26 03:32:15;;;;;;;6.07;1.48;;;4.00;85.70;;;;;;6096546;23;20030;-82
2021/04/26 03:34:41;;;;;;;4.07;1.67;;;3.90;85.60;;;;;;6096028;23;20459;-82
2021/04/26 03:37:13;;;;;;;4.35;1.63;;;3.90;85.80;;;;;;6097246;23;20526;-82
2021/04/26 03:39:40;;;;;;;5.95;1.80;;;3.90;85.90;;;;;;6097130;23;20022;-82
2021/04/26 03:42:05;;;;;;;4.00;1.70;;;3.90;86.10;;;;;;6096845;23;20413;-82
2021/04/26 03:44:31;;;;;;;4.93;1.90;;;3.90;86.20;;;;;;6097407;23;20076;-82
2021/04/26 03:47:03;;;;;;;5.95;1.60;;;3.80;86.70;;;;;;6097695;23;20030;-82
2021/04/26 03:49:28;;;;;;;5.70;1.70;;;3.80;86.90;;;;;;6096998;23;20014;-81
2021/04/26 03:51:54;;;;;;;4.03;1.55;;;3.80;87.00;;;;;;6097612;23;20153;-81
2021/04/26 03:54:20;;;;;;;5.03;1.60;;;3.80;87.00;;;;;;6097970;23;20427;-81
2021/04/26 03:56:46;;;;;;;6.15;1.80;;;3.80;87.00;;;;;;6096364;23;20510;-81
2021/04/26 03:59:12;;;;;;;4.05;1.50;;;3.80;86.90;;;;;;6096919;23;20459;-81
2021/04/26 04:01:38;;;;;;;4.32;1.55;;;3.80;87.00;;;;;;6097397;23;20085;-81
2021/04/26 04:04:04;;;;;;;3.25;1.40;;;3.70;87.10;;;;;;6096879;23;20046;-82
2021/04/26 04:06:31;;;;;;;4.75;1.52;;;3.70;86.90;;;;;;6098061;23;20101;-81
2021/04/26 04:08:59;;;;;;;4.97;1.48;;;3.70;87.00;;;;;;6096779;23;20010;-81
2021/04/26 04:11:24;;;;;;;3.67;1.30;;;3.80;87.10;;;;;;6097565;23;20042;-81
2021/04/26 04:13:50;;;;;;;3.97;1.38;;;3.70;86.60;;;;;;6096986;23;20578;-82
2021/04/26 04:16:16;;;;;;;3.70;1.35;;;3.60;86.40;;;;;;6095360;23;20028;-81
2021/04/26 04:18:41;;;;;;;3.45;1.15;;;3.60;86.40;;;;;;6097213;23;20022;-82
2021/04/26 04:21:07;;;;;;;2.55;1.17;;;3.60;86.30;;;;;;6096742;23;20017;-81
2021/04/26 04:23:33;;;;;;;2.67;1.23;;;3.60;86.30;;;;;;6095285;23;20477;-81
2021/04/26 04:25:58;;;;;;;4.10;1.30;;;3.50;86.20;;;;;;6097045;23;20041;-81
2021/04/26 04:28:24;;;;;;;4.35;1.38;;;3.50;86.20;;;;;;6097043;23;20018;-82
2021/04/26 04:30:50;;;;;;;3.33;1.25;;;3.40;86.00;;;;;;6095989;23;20028;-82
2021/04/26 04:33:15;;;;;;;4.35;1.40;;;3.40;86.30;;;;;;6095922;23;20018;-81
2021/04/26 04:35:41;;;;;;;2.88;1.30;;;3.40;86.30;;;;;;6096285;23;20093;-82
2021/04/26 04:38:07;;;;;;;2.85;1.25;;;3.40;86.40;;;;;;6096093;23;20019;-82
2021/04/26 04:40:33;;;;;;;4.65;1.35;;;3.30;86.20;;;;;;6096366;23;20383;-81
2021/04/26 04:42:59;;;;;;;3.88;1.50;;;3.30;86.30;;;;;;6093818;23;20022;-81
2021/04/26 04:45:24;;;;;;;4.47;1.50;;;3.30;86.60;;;;;;6095387;23;20094;-81
2021/04/26 04:47:50;;;;;;;4.10;1.25;;;3.30;86.60;;;;;;6097025;23;20022;-81
2021/04/26 04:50:16;;;;;;;3.60;1.25;;;3.20;86.50;;;;;;6097392;23;20019;-82
2021/04/26 04:52:42;;;;;;;3.22;1.27;;;3.20;86.60;;;;;;6095591;23;20023;-81
2021/04/26 04:55:11;;;;;;;4.00;1.27;;;3.20;86.70;;;;;;6097254;23;20015;-81
2021/04/26 04:57:37;;;;;;;3.72;1.42;;;3.20;86.70;;;;;;6096774;23;20053;-82
2021/04/26 05:00:06;;;;;;;2.17;1.20;;;3.20;86.70;;;;;;6096207;23;20029;-82
2021/04/26 05:02:31;;;;;;;5.05;1.40;;;3.10;86.80;;;;;;6096161;23;20382;-81
2021/04/26 05:04:57;;;;;;;3.03;1.30;;;3.10;87.00;;;;;;6096908;23;20093;-81
2021/04/26 05:07:23;;;;;;;4.55;1.50;;;3.10;87.20;;;;;;6096054;23;20146;-81
2021/04/26 05:09:48;;;;;;;4.32;1.55;;;3.10;87.10;;;;;;6096701;23;20026;-82
2021/04/26 05:12:15;;;;;;;3.97;1.63;;;3.10;87.00;;;;;;6095428;23;20033;-82
2021/04/26 05:14:42;;;;;;;7.47;1.67;;;3.10;86.80;;;;;;6096675;23;20018;-82
2021/04/26 05:17:08;;;;;;;7.60;1.52;;;3.10;86.60;;;;;;6095473;23;20380;-82
2021/04/26 05:19:34;;;;;;;5.32;1.55;;;3.10;86.50;;;;;;6095804;23;20022;-81
2021/04/26 05:22:01;;;;;;;5.05;1.55;;;3.10;86.90;;;;;;6096844;23;20053;-81
2021/04/26 05:24:27;;;;;;;3.72;1.60;;;3.10;87.10;;;;;;6096981;23;20014;-81
2021/04/26 05:26:52;;;;;;;4.25;1.50;;;3.10;87.10;;;;;;6095216;23;20402;-81
2021/04/26 05:29:18;;;;;;;5.57;1.77;;;3.10;86.90;;;;;;6096921;23;20019;-81
2021/04/26 05:31:44;;;;;;;4.35;1.50;;;3.10;86.70;;;;;;6095355;23;20018;-81
2021/04/26 05:34:10;;;;;;;6.63;1.50;;;3.10;87.00;;;;;;6095617;23;20097;-81
2021/04/26 05:36:35;;;;;;;4.88;1.73;;;3.10;87.00;;;;;;6095748;23;20062;-81
2021/04/26 05:39:01;;;;;;;4.47;1.30;;;3.10;86.80;;;;;;6096537;23;20077;-81
2021/04/26 05:41:27;;;;;;;4.07;1.40;;;3.10;86.60;;;;;;6095553;23;20090;-84
2021/04/26 05:43:53;;;;;;;5.93;1.58;;;3.20;86.70;;;;;;6096866;23;20042;-82
2021/04/26 05:46:19;;;;;;;4.68;1.50;;;3.20;87.00;;;;;;6096111;23;20046;-83
2021/04/26 05:48:45;;;;;;;7.13;1.65;;;3.30;87.10;;;;;;6095363;23;20316;-82
2021/04/26 05:51:10;;;;;;;5.07;1.60;;;3.20;86.90;;;;;;6095239;23;20067;-82
2021/04/26 05:53:38;;;;;;;6.97;1.90;;;3.30;86.90;;;;;;6096244;23;20089;-82
2021/04/26 05:56:04;;;;;;;5.05;1.60;;;3.30;87.00;;;;;;6095329;23;20089;-82
2021/04/26 05:58:30;;;;;;;4.00;1.38;;;3.30;86.70;;;;;;6096083;23;20093;-83
2021/04/26 06:00:56;;;;;;;5.63;1.50;;;3.30;86.90;;;;;;6095301;23;20019;-83
2021/04/26 06:03:21;;;;;;;7.63;1.80;;;3.30;86.90;;;;;;6094786;23;20026;-83
2021/04/26 06:05:47;;;;;;;4.95;1.75;;;3.30;87.00;;;;;;6094903;23;20021;-83
2021/04/26 06:08:13;;;;;;;6.82;1.90;;;3.30;87.40;;;;;;6094983;23;20032;-84
2021/04/26 06:10:38;;;;;;;5.30;1.60;;;3.40;87.40;;;;;;6093369;23;20029;-83
2021/04/26 06:13:04;;;;;;;10.00;2.22;;;3.40;87.20;;;;;;6095407;23;20022;-84
2021/04/26 06:15:30;;;;;;;5.90;1.90;;;3.50;87.60;;;;;;6094782;23;20014;-84
2021/04/26 06:18:07;;;;;;;6.45;1.70;;;3.60;87.80;;;;;;6096409;23;20022;-83
2021/04/26 06:20:33;;;;;;;5.65;1.70;;;3.60;88.50;;;;;;6096400;23;20088;-83
2021/04/26 06:22:58;;;;;;;8.23;1.92;;;3.80;88.70;;;;;;6095558;23;20023;-85
2021/04/26 06:25:24;;;;;;;9.10;2.10;;;3.90;88.80;;;;;;6098051;23;20054;-83
2021/04/26 06:27:50;;;;;;;5.93;1.92;;;4.00;88.90;;;;;;6097346;23;20022;-84
2021/04/26 06:30:16;;;;;;;5.43;1.58;;;4.20;88.70;;;;;;6096685;23;20030;-83
2021/04/26 06:32:41;;;;;;;4.10;1.80;;;4.30;88.60;;;;;;6097981;23;20390;-85
2021/04/26 06:35:07;;;;;;;8.57;1.50;;;4.40;88.50;;;;;;6098214;23;20031;-84
2021/04/26 06:37:33;;;;;;;8.45;1.50;;;4.60;88.50;;;;;;6096986;23;20474;-84
2021/04/26 06:39:59;;;;;;;5.22;1.55;;;4.70;88.20;;;;;;6098478;23;20019;-85
2021/04/26 06:42:26;;;;;;;8.10;1.60;;;4.90;87.70;;;;;;6098438;23;20022;-84
2021/04/26 06:44:52;;;;;;;7.80;1.50;;;5.00;87.60;;;;;;6096467;23;20448;-86
2021/04/26 06:47:18;;;;;;;4.85;1.63;;;5.10;87.20;;;;;;6098511;23;20029;-84
2021/04/26 06:49:44;;;;;;;5.70;1.50;;;5.30;87.10;;;;;;6098031;23;20132;-84
2021/04/26 06:52:10;;;;;;;12.35;2.03;;;5.30;86.90;;;;;;6097661;23;20342;-85
2021/04/26 06:54:35;;;;;;;5.43;1.50;;;5.50;86.60;;;;;;6096936;23;20455;-84
2021/04/26 06:57:01;;;;;;;8.35;1.42;;;5.60;86.30;;;;;;6090689;23;20375;-85
2021/04/26 06:59:27;;;;;;;9.40;1.58;;;5.70;86.20;;;;;;6093930;23;20019;-86
2021/04/26 07:01:52;;;;;;;5.97;1.50;;;5.80;86.10;;;;;;6097081;23;20402;-85
2021/04/26 07:04:18;;;;;;;5.55;1.60;;;5.90;85.90;;;;;;6098381;23;20014;-85
2021/04/26 07:06:44;;;;;;;5.53;1.50;;;6.00;85.60;;;;;;6096953;23;20011;-85
2021/04/26 07:09:10;;;;;;;10.05;1.58;;;6.10;85.30;;;;;;6097778;23;20038;-85
2021/04/26 07:11:36;;;;;;;7.05;1.27;;;6.20;85.10;;;;;;6094480;23;20014;-86
2021/04/26 07:14:02;;;;;;;5.57;1.70;;;6.30;84.70;;;;;;6094608;23;20028;-87
2021/04/26 07:16:28;;;;;;;3.28;1.05;;;6.40;84.50;;;;;;6095771;23;20085;-85
2021/04/26 07:18:53;;;;;;;6.65;1.50;;;6.50;84.60;;;;;;6094421;23;20444;-85
2021/04/26 07:21:19;;;;;;;5.78;1.55;;;6.60;84.40;;;;;;6096015;23;20015;-88
2021/04/26 07:23:44;;;;;;;4.88;1.48;;;6.60;84.40;;;;;;6095672;23;20443;-90
2021/04/26 07:26:10;;;;;;;7.30;1.40;;;6.70;84.40;;;;;;6095264;23;20490;-90
2021/04/26 07:28:37;;;;;;;4.03;1.30;;;6.80;84.20;;;;;;6098418;23;20018;-91
2021/04/26 07:31:03;;;;;;;5.18;1.50;;;6.90;84.00;;;;;;6098413;23;20030;-87
2021/04/26 07:33:28;;;;;;;6.65;1.33;;;7.00;84.10;;;;;;6098506;23;20025;-87
2021/04/26 07:35:54;;;;;;;4.65;1.42;;;7.10;84.20;;;;;;6097389;23;20474;-90
2021/04/26 07:38:20;;;;;;;6.78;1.40;;;7.10;84.00;;;;;;6097918;23;20109;-89
2021/04/26 07:40:46;;;;;;;9.48;1.50;;;7.30;83.40;;;;;;6097278;23;20019;-89
2021/04/26 07:43:13;;;;;;;6.38;1.30;;;7.40;83.70;;;;;;6097716;23;20026;-85
2021/04/26 07:45:38;;;;;;;6.13;1.48;;;7.50;83.80;;;;;;6097109;23;20021;-88
2021/04/26 07:48:04;;;;;;;5.05;1.17;;;7.60;83.70;;;;;;6097400;23;20025;-85
2021/04/26 07:50:30;;;;;;;8.50;1.30;;;7.70;83.00;;;;;;6098178;23;20439;-86
2021/04/26 07:52:56;;;;;;;5.65;1.40;;;7.80;82.60;;;;;;6097890;23;20018;-87
2021/04/26 07:55:22;;;;;;;5.05;1.15;;;7.90;82.60;;;;;;6096451;23;20089;-87
2021/04/26 07:57:48;;;;;;;6.85;1.25;;;8.00;82.40;;;;;;6096760;23;20018;-88
2021/04/26 08:00:14;;;;;;;8.18;1.30;;;8.10;81.90;;;;;;6097982;23;20347;-86
2021/04/26 08:02:40;;;;;;;5.47;1.25;;;8.20;81.90;;;;;;6096402;23;20022;-87
2021/04/26 08:05:07;;;;;;;6.75;1.40;;;8.30;81.90;;;;;;6097011;23;20341;-88
2021/04/26 08:07:32;;;;;;;5.43;0.98;;;8.40;81.20;;;;;;6097337;23;20022;-89
2021/04/26 08:09:58;;;;;;;5.80;1.35;;;8.50;81.20;;;;;;6097161;23;20025;-86
2021/04/26 08:12:23;;;;;;;6.43;1.13;;;8.60;81.40;;;;;;6097845;23;20018;-91
2021/04/26 08:14:49;;;;;;;4.07;1.23;;;8.70;80.50;;;;;;6097224;23;20042;-84
2021/04/26 08:17:15;;;;;;;3.40;0.90;;;8.80;80.40;;;;;;6096552;23;20049;-85
2021/04/26 08:19:41;;;;;;;5.03;1.05;;;8.90;79.30;;;;;;6096836;23;20026;-87
2021/04/26 08:22:08;;;;;;;3.72;1.00;;;8.90;77.40;;;;;;6097318;23;20019;-92
2021/04/26 08:24:34;;;;;;;4.07;0.90;;;9.00;75.70;;;;;;6097119;23;20093;-89
2021/04/26 08:26:59;;;;;;;3.05;0.80;;;9.10;76.00;;;;;;6096993;23;20489;-86
2021/04/26 08:29:25;;;;;;;4.95;1.10;;;9.20;77.00;;;;;;6095724;23;20026;-85
2021/04/26 08:31:51;;;;;;;6.78;1.10;;;9.30;77.50;;;;;;6096498;23;20487;-89
2021/04/26 08:34:16;;;;;;;5.25;1.08;;;9.40;77.90;;;;;;6099050;23;20023;-85
2021/04/26 08:36:43;;;;;;;9.50;1.48;;;9.50;78.30;;;;;;6095176;23;20097;-85
2021/04/26 08:39:09;;;;;;;3.20;0.80;;;9.60;78.50;;;;;;6096941;23;20034;-85
2021/04/26 08:41:34;;;;;;;5.32;0.90;;;9.70;78.00;;;;;;6096904;23;20074;-87
2021/04/26 08:44:01;;;;;;;5.65;1.02;;;9.80;77.80;;;;;;6095880;23;20077;-88
2021/04/26 08:46:26;;;;;;;5.82;0.95;;;9.90;78.50;;;;;;6097663;23;20371;-87
2021/04/26 08:48:53;;;;;;;6.25;0.85;;;10.00;75.30;;;;;;6096628;23;20026;-83
2021/04/26 08:51:18;;;;;;;4.32;1.08;;;10.10;73.60;;;;;;6095823;23;20022;-83
2021/04/26 08:53:59;;;;;;;4.20;1.10;;;10.20;73.50;;;;;;6097030;23;20312;-84
2021/04/26 08:56:25;;;;;;;4.13;0.98;;;10.30;74.60;;;;;;6096878;23;20014;-85
2021/04/26 08:58:50;;;;;;;5.63;1.02;;;10.40;75.30;;;;;;6095468;23;20022;-87
2021/04/26 09:01:16;;;;;;;3.55;1.02;;;10.50;75.50;;;;;;6097227;23;20022;-86
2021/04/26 09:03:42;;;;;;;2.42;0.80;;;10.60;76.30;;;;;;6069913;23;20026;-86
2021/04/26 09:06:18;;;;;;;5.45;1.02;;;10.70;76.50;;;;;;6096367;23;20093;-87
2021/04/26 09:08:56;;;;;;;3.05;0.90;;;10.90;76.40;;;;;;6096876;23;20022;-86
2021/04/26 09:11:22;;;;;;;5.43;1.10;;;10.90;72.00;;;;;;6096087;23;20093;-86
2021/04/26 09:13:49;;;;;;;3.75;0.90;;;11.00;71.60;;;;;;6096076;23;20399;-86
2021/04/26 09:16:23;;;;;;;4.13;1.10;;;11.10;73.40;;;;;;6097100;23;20089;-87
2021/04/26 09:18:56;;;;;;;3.00;0.85;;;11.20;74.50;;;;;;6095714;23;20030;-88
2021/04/26 09:21:38;;;;;;;2.90;1.00;;;11.30;75.80;;;;;;6097500;23;20025;-88
2021/04/26 09:24:19;;;;;;;2.53;0.85;;;11.50;76.30;;;;;;6097197;23;20022;-87
2021/04/26 09:26:53;;;;;;;2.55;0.80;;;11.60;77.50;;;;;;6096581;23;20014;-87
2021/04/26 09:29:27;;;;;;;4.10;1.13;;;11.70;77.10;;;;;;6097021;23;20387;-87
2021/04/26 09:32:36;;;;;;;4.72;0.90;;;11.70;75.60;;;;;;6094925;23;20023;-88
2021/04/26 09:35:04;;;;;;;4.00;0.90;;;11.80;74.10;;;;;;6096909;23;20462;-89
2021/04/26 09:37:51;;;;;;;5.68;0.90;;;11.80;72.50;;;;;;6096691;23;20022;-88
2021/04/26 09:40:19;;;;;;;2.50;0.90;;;11.90;73.80;;;;;;6095770;23;20026;-88
2021/04/26 09:42:49;;;;;;;2.55;0.95;;;12.10;75.10;;;;;;6096879;23;20039;-88
2021/04/26 09:45:44;;;;;;;4.70;1.30;;;12.20;75.40;;;;;;6097865;23;20022;-88
2021/04/26 09:48:21;;;;;;;3.65;0.80;;;12.30;74.30;;;;;;6097193;23;20019;-87
2021/04/26 09:51:02;;;;;;;2.55;0.90;;;12.40;75.20;;;;;;6097138;23;20093;-87
2021/04/26 09:53:30;;;;;;;4.72;1.10;;;12.50;75.20;;;;;;6097937;23;20015;-88
2021/04/26 09:56:08;;;;;;;4.57;0.90;;;12.60;71.10;;;;;;6097298;23;20018;-89
2021/04/26 09:58:34;;;;;;;2.95;1.00;;;12.60;72.10;;;;;;6096227;23;20026;-88
2021/04/26 10:01:01;;;;;;;4.15;1.20;;;12.70;71.80;;;;;;6095732;23;20037;-89
2021/04/26 10:03:27;;;;;;;2.85;0.80;;;12.80;72.10;;;;;;6096108;23;20022;-88
2021/04/26 10:05:53;;;;;;;3.08;0.90;;;12.80;73.30;;;;;;6095728;23;20069;-90
2021/04/26 10:08:22;;;;;;;3.58;1.05;;;13.00;74.20;;;;;;6095566;23;20022;-88
2021/04/26 10:10:48;;;;;;;4.82;1.10;;;13.10;73.80;;;;;;6096126;23;20018;-88
2021/04/26 10:13:14;;;;;;;3.60;1.00;;;13.20;73.60;;;;;;6095652;23;20517;-88
2021/04/26 10:15:40;;;;;;;3.25;0.90;;;13.30;74.20;;;;;;6094829;23;20351;-89
2021/04/26 10:18:09;;;;;;;3.60;0.82;;;13.40;71.20;;;;;;6095978;23;20458;-88
2021/04/26 10:20:38;;;;;;;3.65;0.93;;;13.40;68.60;;;;;;6095936;23;20019;-89
2021/04/26 10:23:05;;;;;;;3.78;1.00;;;13.30;65.30;;;;;;6096018;23;20022;-88
2021/04/26 10:25:39;;;;;;;3.25;0.95;;;13.20;65.50;;;;;;6096891;23;20077;-88
2021/04/26 10:28:27;;;;;;;2.78;0.82;;;13.30;67.00;;;;;;6097034;23;20078;-88
2021/04/26 10:30:58;;;;;;;2.17;0.80;;;13.30;69.80;;;;;;6095013;23;20030;-88
2021/04/26 10:33:23;;;;;;;2.28;0.82;;;13.40;66.90;;;;;;6096374;23;20025;-89
2021/04/26 10:35:51;;;;;;;2.95;1.00;;;13.50;66.90;;;;;;6095473;23;20018;-90
2021/04/26 10:38:39;;;;;;;3.90;0.90;;;13.60;67.40;;;;;;6096573;23;20025;-89
2021/04/26 10:41:07;;;;;;;2.83;0.80;;;13.70;67.90;;;;;;6097037;23;20085;-89
2021/04/26 10:43:34;;;;;;;3.42;0.90;;;13.80;69.50;;;;;;6095678;23;20023;-89
2021/04/26 10:46:15;;;;;;;4.22;0.90;;;14.00;70.40;;;;;;6096784;23;20052;-88
2021/04/26 10:49:07;;;;;;;3.78;0.90;;;14.20;71.40;;;;;;6096580;23;20089;-90
2021/04/26 10:51:51;;;;;;;3.92;1.08;;;14.30;71.20;;;;;;6094851;23;20125;-91
2021/04/26 10:54:40;;;;;;;2.70;0.82;;;14.40;71.90;;;;;;6097068;23;20077;-90
2021/04/26 10:57:31;;;;;;;2.25;0.88;;;14.40;67.60;;;;;;6096243;23;20033;-88
2021/04/26 11:00:20;;;;;;;3.85;0.95;;;14.50;70.70;;;;;;6097574;23;20041;-88
2021/04/26 11:03:22;;;;;;;4.28;0.90;;;14.60;68.80;;;;;;6095878;23;20069;-88
2021/04/26 11:05:53;;;;;;;4.50;0.90;;;14.70;70.10;;;;;;6095797;23;20019;-89
2021/04/26 11:11:05;;;;;;;4.35;1.10;;;14.70;59.80;;;;;;6095955;23;20026;-88
2021/04/26 11:13:34;;;;;;;2.40;0.90;;;14.60;60.40;;;;;;6097915;23;20089;-89
2021/04/26 11:16:10;;;;;;;3.28;1.10;;;14.60;64.90;;;;;;6097953;23;20093;-90
2021/04/26 11:18:38;;;;;;;4.28;1.20;;;14.80;67.60;;;;;;6096316;23;20018;-88
2021/04/26 11:21:05;;;;;;;3.13;1.00;;;14.80;69.50;;;;;;6098052;23;20525;-89
2021/04/26 11:23:44;;;;;;;2.00;0.80;;;14.90;68.50;;;;;;6098189;23;20026;-89
2021/04/26 11:26:22;;;;;;;4.55;1.00;;;15.00;70.30;;;;;;6097442;23;20165;-89
2021/04/26 11:29:11;;;;;;;3.22;1.00;;;15.10;69.30;;;;;;6096108;23;20350;-90
2021/04/26 11:31:43;;;;;;;3.63;0.95;;;15.30;69.90;;;;;;6097729;23;20029;-90
2021/04/26 11:34:10;;;;;;;5.40;0.95;;;15.40;70.10;;;;;;6097607;23;20022;-91
2021/04/26 11:37:01;;;;;;;2.83;0.90;;;15.50;68.70;;;;;;6098007;23;20141;-90
2021/04/26 11:39:28;;;;;;;3.35;0.90;;;15.60;70.20;;;;;;6096689;23;20026;-90
2021/04/26 11:41:54;;;;;;;4.30;1.00;;;15.70;70.80;;;;;;6097470;23;20478;-85
2021/04/26 11:44:29;;;;;;;2.85;1.00;;;15.80;70.60;;;;;;6098703;23;20083;-88
2021/04/26 11:47:06;;;;;;;4.93;1.20;;;15.90;67.90;;;;;;6095260;23;20018;-89
2021/04/26 11:49:44;;;;;;;4.35;1.00;;;15.90;69.10;;;;;;6097660;23;20057;-88
2021/04/26 11:52:15;;;;;;;3.28;0.90;;;15.90;67.80;;;;;;6097763;23;20014;-88
2021/04/26 11:54:43;;;;;;;4.55;1.15;;;16.00;68.70;;;;;;6096668;23;20022;-89
2021/04/26 11:57:18;;;;;;;5.95;1.10;;;16.10;69.60;;;;;;6097826;23;20022;-87
2021/04/26 11:59:48;;;;;;;2.72;1.10;;;16.20;70.10;;;;;;6098341;23;20062;-87
2021/04/26 12:02:24;;;;;;;3.92;1.15;;;16.30;71.10;;;;;;6097238;23;20022;-88
2021/04/26 12:04:50;;;;;;;3.60;1.20;;;16.40;70.00;;;;;;6097335;23;20387;-89
2021/04/26 12:07:16;;;;;;;4.43;1.20;;;16.40;69.50;;;;;;6097245;23;20074;-88
2021/04/26 12:09:46;;;;;;;4.85;1.20;;;16.50;70.00;;;;;;6097867;23;20127;-86
2021/04/26 12:12:19;;;;;;;4.03;1.00;;;16.60;67.10;;;;;;6097155;23;20022;-93
2021/04/26 12:14:45;;;;;;;4.90;1.20;;;16.70;68.90;;;;;;6096652;23;20439;-91
2021/04/26 12:17:19;;;;;;;2.50;1.00;;;16.70;67.90;;;;;;6097107;23;20029;-87
2021/04/26 12:19:48;;;;;;;3.08;1.20;;;16.80;68.10;;;;;;6097678;23;20069;-90
2021/04/26 12:22:15;;;;;;;4.72;1.25;;;16.80;68.60;;;;;;6098060;23;20097;-94
2021/04/26 12:24:42;;;;;;;4.10;1.30;;;16.90;69.00;;;;;;6099236;23;20022;-89
2021/04/26 12:27:13;;;;;;;5.82;1.27;;;16.90;66.80;;;;;;6101958;23;20347;-94
2021/04/26 12:29:40;;;;;;;4.13;1.20;;;16.90;66.90;;;;;;6102161;23;20021;-93
2021/04/26 12:32:12;;;;;;;5.47;1.23;;;17.00;66.00;;;;;;6098624;23;20019;-88
2021/04/26 12:34:55;;;;;;;6.07;1.33;;;16.90;62.60;;;;;;6098278;23;20447;-89
2021/04/26 12:37:27;;;;;;;6.38;1.40;;;16.90;61.50;;;;;;6097183;23;20074;-87
2021/04/26 12:40:10;;;;;;;5.60;1.50;;;16.80;62.80;;;;;;6097617;23;20359;-88
2021/04/26 12:42:37;;;;;;;5.90;1.30;;;16.80;62.90;;;;;;6106749;23;20069;-95
2021/04/26 12:45:23;;;;;;;9.68;1.60;;;16.70;63.40;;;;;;6109524;23;20025;-95
2021/04/26 12:47:59;;;;;;;4.50;1.40;;;16.70;56.70;;;;;;6107784;23;20033;-90
2021/04/26 12:51:07;;;;;;;4.82;1.60;;;16.50;60.70;;;;;;6097783;23;20081;-89
2021/04/26 12:53:34;;;;;;;4.95;1.30;;;16.40;60.60;;;;;;6091843;23;20022;-90
2021/04/26 12:56:00;;;;;;;4.95;1.70;;;16.40;63.90;;;;;;6096883;23;20014;-90
2021/04/26 12:58:27;;;;;;;6.00;1.83;;;16.40;64.30;;;;;;6096458;23;20101;-89
2021/04/26 13:01:25;;;;;;;5.20;1.60;;;16.40;60.70;;;;;;6097369;23;20386;-89
2021/04/26 13:03:56;;;;;;;5.82;1.52;;;16.40;59.50;;;;;;6095971;23;20026;-89
2021/04/26 13:06:26;;;;;;;6.45;1.80;;;16.40;65.00;;;;;;6097652;23;20050;-91